• Join FlightAware (Why Join?)
  • Login
  • US Flag 
04:02PM EDT


 

Airport Tracker/Info


-or-


 

Live Flight TrackerFlight Track Log ✈ N70MN ✈ 22-Jul-2013 ✈ KFFM - KSTP

Flight Track Log - Related Links

Times and Time Zones

All times are in EDT time to prevent confusion due to time zone crossing. See the N70MN flight status page for this flight to view local times or setup timezone preferences in your user account.

Time Position Orientation Groundspeed Altitude Reporting Facility
EDT Latitude Longitude Course Direction KTS MPH feet Rate Location/Type
01:02PM 46.2367 -96.1586 119° Southeast 216 249 3,500  Level Minneapolis Center
01:03PM 46.2075 -96.0814 119° Southeast 213 245 5,700 2,100 Climbing Minneapolis Center
01:04PM 46.1936 -96.0094 106° East 185 213 7,900 1,980 Climbing Minneapolis Center
01:05PM 46.1783 -95.9325 106° East 190 219 9,800 1,800 Climbing Minneapolis Center
01:06PM 46.1647 -95.8572 105° East 192 221 11,700 1,740 Climbing Minneapolis Center
01:07PM 46.1519 -95.7744 103° East 202 232 13,500 1,620 Climbing Minneapolis Center
01:08PM 46.1367 -95.6950 105° East 205 236 15,100 1,500 Climbing Minneapolis Center
01:09PM 46.1217 -95.6094 104° East 214 246 16,700 1,680 Climbing Minneapolis Center
01:10PM 46.1028 -95.5106 105° East 215 247 18,600 1,020 Climbing Minneapolis Center
01:11PM 46.0839 -95.4156 106° East 237 273 18,900 120 Climbing Minneapolis Center
01:12PM 46.0542 -95.3072 112° Southeast 279 321 18,900  Level Minneapolis Center
01:13PM 46.0228 -95.1989 113° Southeast 290 334 18,900  Level Minneapolis Center
01:14PM 45.9906 -95.0917 113° Southeast 292 336 18,900  Level Minneapolis Center
01:15PM 45.9547 -94.9658 112° Southeast 296 341 18,900  Level Minneapolis Center
01:16PM 45.9222 -94.8561 113° Southeast 299 344 18,900 -540 Level Minneapolis Center
01:17PM 45.8883 -94.7431 113° Southeast 304 350 17,900 -960 Descending Minneapolis Center
01:18PM 45.8542 -94.6264 113° Southeast 314 361 17,000 -900 Descending Minneapolis Center
01:19PM 45.8194 -94.5114 113° Southeast 316 364 16,100 -960 Descending Minneapolis Center
01:20PM 45.7853 -94.3978 113° Southeast 313 360 15,100 -1,140 Descending Minneapolis Center
01:21PM 45.7464 -94.2658 113° Southeast 305 351 13,800 -1,200 Descending Minneapolis Center
01:22PM 45.7142 -94.1631 114° Southeast 291 335 12,700 -1,140 Descending Minneapolis Center
01:23PM 45.6822 -94.0589 114° Southeast 287 330 11,500 -1,260 Descending Minneapolis Center
01:24PM 45.6503 -93.9531 113° Southeast 290 334 10,200 -1,260 Descending Minneapolis Center
01:25PM 45.6189 -93.8508 114° Southeast 282 325 8,900 -1,200 Descending Minneapolis Center
01:27PM 45.5861 -93.7500 115° Southeast 280 322 7,700 -960 Descending Minneapolis Center
01:28PM 45.5189 -93.6769 143° Southeast 250 288 7,000 -360 Descending Minneapolis Center
01:29PM 45.4697 -93.6181 140° Southeast 231 266 7,000 -420 Level Minneapolis Center
01:30PM 45.4231 -93.5600 139° Southeast 224 258 6,200 -900 Descending Minneapolis Center
01:31PM 45.3703 -93.5250 155° Southeast 210 242 5,200 -600 Descending Minneapolis Center
01:32PM 45.3292 -93.4675 135° Southeast 207 238 5,000 -120 Descending Minneapolis Center
01:33PM 45.2878 -93.4208 142° Southeast 194 223 5,000 -420 Level Minneapolis Center
01:34PM 45.2342 -93.3664 144° Southeast 196 226 4,200 -540 Descending Minneapolis Center
01:35PM 45.1931 -93.3186 141° Southeast 191 220 4,000 -300 Descending Minneapolis Center
01:36PM 45.1522 -93.2758 144° Southeast 183 211 3,600 -300 Descending Minneapolis Center
01:37PM 45.1119 -93.2283 140° Southeast 187 215 3,500 -180 Descending Minneapolis Center
01:39PM 45.0375 -93.1581 146° Southeast 157 181 3,100 -480 Descending Minneapolis Center
01:40PM 44.9989 -93.1106 139° Southeast 154 177 2,100 -600 Descending Minneapolis Center
01:41PM 44.9769 -93.0608 122° Southeast 150 173 1,900 -300 Descending Minneapolis Center
01:42PM 44.9506 -93.0181 131° Southeast 144 166 1,500 -420 Descending Minneapolis Center
01:44PM 44.9333 -93.0500 145° Southeast  Level FlightAware Approximate
01:51PM 44.9346 -93.0603 145° Southeast  Level Estimated
01:52PM 44.9346 -93.0603 145° Southeast  Level Estimated